createdAt,value
2024-02-28T00:00:10.858Z,59.03
2024-02-28T00:01:10.955Z,59.54
2024-02-28T00:02:10.826Z,60.05
2024-02-28T00:03:10.870Z,60.23
2024-02-28T00:04:10.832Z,60.34
2024-02-28T00:05:10.833Z,60.37
2024-02-28T00:06:10.866Z,60.40
2024-02-28T00:07:10.867Z,60.28
2024-02-28T00:08:10.818Z,60.37
2024-02-28T00:09:10.920Z,60.15
2024-02-28T00:10:10.846Z,59.98
2024-02-28T00:11:10.890Z,59.80
2024-02-28T00:12:10.865Z,59.77
2024-02-28T00:13:10.879Z,59.62
2024-02-28T00:14:10.848Z,59.35
2024-02-28T00:15:10.899Z,59.10
2024-02-28T00:16:10.889Z,59.14
2024-02-28T00:17:10.848Z,59.22
2024-02-28T00:18:10.957Z,59.14
2024-02-28T00:19:10.953Z,58.97
2024-02-28T00:20:11.063Z,59.05
2024-02-28T00:21:11.058Z,58.99
2024-02-28T00:22:11.046Z,58.84
2024-02-28T00:23:11.107Z,58.86
2024-02-28T00:24:11.263Z,59.05
2024-02-28T00:25:11.186Z,59.01
2024-02-28T00:26:11.279Z,59.01
2024-02-28T00:27:11.373Z,59.32
2024-02-28T00:28:11.367Z,59.70
2024-02-28T00:29:11.393Z,59.72
2024-02-28T00:30:11.496Z,59.64
2024-02-28T00:31:11.506Z,59.65
2024-02-28T00:32:11.541Z,59.82
2024-02-28T00:33:11.662Z,60.03
2024-02-28T00:34:11.652Z,60.32
2024-02-28T00:35:11.666Z,60.27
2024-02-28T00:36:11.805Z,60.04
2024-02-28T00:37:11.813Z,59.99
2024-02-28T00:38:11.778Z,60.02
2024-02-28T00:39:11.842Z,59.83
2024-02-28T00:40:11.833Z,59.61
2024-02-28T00:41:11.856Z,59.45
2024-02-28T00:42:11.904Z,59.38
2024-02-28T00:43:11.903Z,59.59
2024-02-28T00:44:11.930Z,59.92
2024-02-28T00:45:12.048Z,60.38
2024-02-28T00:46:11.985Z,60.27
2024-02-28T00:47:12.026Z,60.05
2024-02-28T00:48:12.141Z,59.93
2024-02-28T00:49:12.124Z,59.89
2024-02-28T00:50:12.146Z,60.25
2024-02-28T00:51:12.186Z,60.12
2024-02-28T00:52:12.176Z,60.20
2024-02-28T00:53:12.202Z,60.36
2024-02-28T00:54:12.274Z,60.53
2024-02-28T00:55:12.301Z,60.96
2024-02-28T00:56:12.351Z,61.50
2024-02-28T00:57:12.398Z,61.67
2024-02-28T00:58:12.405Z,61.40
2024-02-28T00:59:12.438Z,61.19
2024-02-28T01:00:12.534Z,61.04
2024-02-28T01:01:12.621Z,60.86
2024-02-28T01:02:12.618Z,60.50
2024-02-28T01:03:12.693Z,60.26
2024-02-28T01:04:12.707Z,60.09
2024-02-28T01:05:12.767Z,60.11
2024-02-28T01:06:12.842Z,60.03
2024-02-28T01:07:12.854Z,59.97
2024-02-28T01:08:12.886Z,59.92
2024-02-28T01:09:12.964Z,60.17
2024-02-28T01:10:12.979Z,60.14
2024-02-28T01:11:13.059Z,60.29
2024-02-28T01:12:13.109Z,60.19
2024-02-28T01:13:13.113Z,60.24
2024-02-28T01:14:13.192Z,60.15
2024-02-28T01:15:13.244Z,60.53
2024-02-28T01:16:13.245Z,60.46
2024-02-28T01:17:13.266Z,60.30
2024-02-28T01:18:13.750Z,60.13
2024-02-28T01:19:13.326Z,59.94
2024-02-28T01:20:13.427Z,59.93
2024-02-28T01:21:13.496Z,59.86
2024-02-28T01:22:13.506Z,59.60
2024-02-28T01:23:13.568Z,59.49
2024-02-28T01:24:13.696Z,59.78
2024-02-28T01:25:13.642Z,60.25
2024-02-28T01:26:13.703Z,60.96
2024-02-28T01:27:13.808Z,61.31
2024-02-28T01:28:13.756Z,61.30
2024-02-28T01:29:13.758Z,61.18
2024-02-28T01:30:13.930Z,61.13
2024-02-28T01:31:13.849Z,60.80
2024-02-28T01:32:13.892Z,60.46
2024-02-28T01:33:13.989Z,60.63
2024-02-28T01:34:13.983Z,60.68
2024-02-28T01:35:14.027Z,60.46
2024-02-28T01:36:14.082Z,60.36
2024-02-28T01:37:14.104Z,60.18
2024-02-28T01:38:14.171Z,60.05
2024-02-28T01:39:14.244Z,59.92
2024-02-28T01:40:14.309Z,59.99
2024-02-28T01:41:14.268Z,60.27
2024-02-28T01:42:14.309Z,60.30
2024-02-28T01:43:14.322Z,60.41
2024-02-28T01:44:14.324Z,60.47
2024-02-28T01:45:14.375Z,60.32
2024-02-28T01:46:14.426Z,60.26
2024-02-28T01:47:14.455Z,60.19
2024-02-28T01:48:14.608Z,60.34
2024-02-28T01:49:14.559Z,60.44
2024-02-28T01:50:14.650Z,60.52
2024-02-28T01:51:14.695Z,60.53
2024-02-28T01:52:14.703Z,60.28
2024-02-28T01:53:14.727Z,60.23
2024-02-28T01:54:14.731Z,60.39
2024-02-28T01:55:14.756Z,60.53
2024-02-28T01:56:14.844Z,60.35
2024-02-28T01:57:14.885Z,60.17
2024-02-28T01:58:14.865Z,60.00
2024-02-28T01:59:14.862Z,60.18
2024-02-28T02:00:14.890Z,60.17
2024-02-28T02:01:15.020Z,60.17
2024-02-28T02:02:14.895Z,60.16
2024-02-28T02:03:14.946Z,59.89
2024-02-28T02:04:14.941Z,59.77
2024-02-28T02:05:14.961Z,59.65
2024-02-28T02:06:15.028Z,59.72
2024-02-28T02:07:15.048Z,60.26
2024-02-28T02:08:15.104Z,60.42
2024-02-28T02:09:15.215Z,60.21
2024-02-28T02:10:15.195Z,59.98
2024-02-28T02:11:15.252Z,59.70
2024-02-28T02:12:15.242Z,59.52
2024-02-28T02:13:15.270Z,59.30
2024-02-28T02:14:15.281Z,59.53
2024-02-28T02:15:15.402Z,59.55
2024-02-28T02:16:15.473Z,59.64
2024-02-28T02:17:15.444Z,59.49
2024-02-28T02:18:15.643Z,59.58
2024-02-28T02:19:15.657Z,59.68
2024-02-28T02:20:15.628Z,59.80
2024-02-28T02:21:15.733Z,59.95
2024-02-28T02:22:15.806Z,60.04
2024-02-28T02:23:15.774Z,60.01
2024-02-28T02:24:15.861Z,59.95
2024-02-28T02:25:15.848Z,59.83
2024-02-28T02:26:15.921Z,59.86
2024-02-28T02:27:15.958Z,59.79
2024-02-28T02:28:15.967Z,59.69
2024-02-28T02:29:16.004Z,59.48
2024-02-28T02:30:16.085Z,59.27
2024-02-28T02:31:16.067Z,59.22
2024-02-28T02:32:16.082Z,59.14
2024-02-28T02:33:16.161Z,59.04
2024-02-28T02:34:16.143Z,59.25
2024-02-28T02:35:16.164Z,59.38
2024-02-28T02:36:16.178Z,59.36
2024-02-28T02:37:16.181Z,59.46
2024-02-28T02:38:16.203Z,59.69
2024-02-28T02:39:16.316Z,59.62
2024-02-28T02:40:16.301Z,59.51
2024-02-28T02:41:16.352Z,59.57
2024-02-28T02:42:16.529Z,59.63
2024-02-28T02:43:16.461Z,59.68
2024-02-28T02:44:16.506Z,59.63
2024-02-28T02:45:16.642Z,59.68
2024-02-28T02:46:16.654Z,59.87
2024-02-28T02:47:16.678Z,60.38
2024-02-28T02:48:16.747Z,60.31
2024-02-28T02:49:16.753Z,60.22
2024-02-28T02:50:16.796Z,60.33
2024-02-28T02:51:16.855Z,60.37
2024-02-28T02:52:16.831Z,60.62
2024-02-28T02:53:16.888Z,60.75
2024-02-28T02:54:16.927Z,60.94
2024-02-28T02:55:16.946Z,61.36
2024-02-28T02:56:16.996Z,61.28
2024-02-28T02:57:17.053Z,61.24
2024-02-28T02:58:17.059Z,61.12
2024-02-28T02:59:17.122Z,61.18
2024-02-28T03:00:17.214Z,61.38
2024-02-28T03:01:17.304Z,61.39
2024-02-28T03:02:17.276Z,61.40
2024-02-28T03:03:17.349Z,61.80
2024-02-28T03:04:17.385Z,62.45
2024-02-28T03:05:17.391Z,62.98
2024-02-28T03:06:17.459Z,62.88
2024-02-28T03:07:17.434Z,62.73
2024-02-28T03:08:17.450Z,62.70
2024-02-28T03:09:17.477Z,62.39
2024-02-28T03:10:17.497Z,62.07
2024-02-28T03:11:17.602Z,62.04
2024-02-28T03:12:17.616Z,62.06
2024-02-28T03:13:17.635Z,61.86
2024-02-28T03:14:17.630Z,61.42
2024-02-28T03:15:17.717Z,60.94
2024-02-28T03:16:17.664Z,60.51
2024-02-28T03:17:17.692Z,60.22
2024-02-28T03:18:17.740Z,60.72
2024-02-28T03:19:17.763Z,60.87
2024-02-28T03:20:17.794Z,60.84
2024-02-28T03:21:17.867Z,60.73
2024-02-28T03:22:17.913Z,60.46
2024-02-28T03:23:17.966Z,60.26
2024-02-28T03:24:18.023Z,60.18
2024-02-28T03:25:18.048Z,60.06
2024-02-28T03:26:18.095Z,59.86
2024-02-28T03:27:18.140Z,59.66
2024-02-28T03:28:18.163Z,59.71
2024-02-28T03:29:18.199Z,60.07
2024-02-28T03:30:18.275Z,60.25
2024-02-28T03:31:18.281Z,60.64
2024-02-28T03:32:18.315Z,60.57
2024-02-28T03:33:18.337Z,60.37
2024-02-28T03:34:18.362Z,60.20
2024-02-28T03:35:18.388Z,60.00
2024-02-28T03:36:18.480Z,60.05
2024-02-28T03:37:18.468Z,60.21
2024-02-28T03:38:18.525Z,60.24
2024-02-28T03:39:18.606Z,60.18
2024-02-28T03:40:18.616Z,59.95
2024-02-28T03:41:18.680Z,59.99
2024-02-28T03:42:18.716Z,60.13
2024-02-28T03:43:18.705Z,59.92
2024-02-28T03:44:18.712Z,59.77
2024-02-28T03:45:18.816Z,59.62
2024-02-28T03:46:18.802Z,59.55
2024-02-28T03:47:18.894Z,59.51
2024-02-28T03:48:19.011Z,59.36
2024-02-28T03:49:18.938Z,59.19
2024-02-28T03:50:18.962Z,59.09
2024-02-28T03:51:19.016Z,59.02
2024-02-28T03:52:19.011Z,58.94
2024-02-28T03:53:19.079Z,58.89
2024-02-28T03:54:19.147Z,58.92
2024-02-28T03:55:19.191Z,58.83
2024-02-28T03:56:20.284Z,59.10
2024-02-28T03:57:19.295Z,59.42
2024-02-28T03:58:19.393Z,59.73
2024-02-28T03:59:19.379Z,60.21
2024-02-28T04:00:19.446Z,60.22
2024-02-28T04:01:19.544Z,60.27
2024-02-28T04:02:19.560Z,60.45
2024-02-28T04:03:19.656Z,60.86
2024-02-28T04:04:19.648Z,60.90
2024-02-28T04:05:19.702Z,60.75
2024-02-28T04:06:19.742Z,60.94
2024-02-28T04:07:19.737Z,60.99
2024-02-28T04:08:19.754Z,60.86
2024-02-28T04:09:19.806Z,60.60
2024-02-28T04:10:19.838Z,60.36
2024-02-28T04:11:19.893Z,60.48
2024-02-28T04:12:19.925Z,60.49
2024-02-28T04:13:19.929Z,60.55
2024-02-28T04:14:20.002Z,60.58
2024-02-28T04:15:20.141Z,60.38
2024-02-28T04:16:20.141Z,60.15
2024-02-28T04:17:20.202Z,60.20
2024-02-28T04:18:20.302Z,60.14
2024-02-28T04:19:20.317Z,60.55
2024-02-28T04:20:20.375Z,60.50
2024-02-28T04:21:20.479Z,60.33
2024-02-28T04:22:20.460Z,60.31
2024-02-28T04:23:20.502Z,60.30
2024-02-28T04:24:20.562Z,60.33
2024-02-28T04:25:20.563Z,60.37
2024-02-28T04:26:20.628Z,60.77
2024-02-28T04:27:20.737Z,60.82
2024-02-28T04:28:20.770Z,60.91
2024-02-28T04:29:20.800Z,60.96
2024-02-28T04:30:20.841Z,61.00
2024-02-28T04:31:20.847Z,60.90
2024-02-28T04:32:20.915Z,60.77
2024-02-28T04:33:20.961Z,60.57
2024-02-28T04:34:20.933Z,60.60
2024-02-28T04:35:20.989Z,60.44
2024-02-28T04:36:21.116Z,60.39
2024-02-28T04:37:21.581Z,60.40
2024-02-28T04:38:21.048Z,60.45
2024-02-28T04:39:21.154Z,60.49
2024-02-28T04:40:21.106Z,60.45
2024-02-28T04:41:21.614Z,60.71
2024-02-28T04:42:21.254Z,60.71
2024-02-28T04:43:21.260Z,60.61
2024-02-28T04:44:21.288Z,60.54
2024-02-28T04:45:21.453Z,60.39
2024-02-28T04:46:21.380Z,60.25
2024-02-28T04:47:26.467Z,60.08
2024-02-28T04:48:34.192Z,60.24
2024-02-28T04:49:34.108Z,60.15
2024-02-28T04:50:34.148Z,60.18
2024-02-28T04:51:34.163Z,60.42
2024-02-28T04:52:34.171Z,60.56
2024-02-28T04:53:34.161Z,60.61
2024-02-28T04:54:34.182Z,60.43
2024-02-28T04:55:34.161Z,60.51
2024-02-28T04:56:34.176Z,60.55
2024-02-28T04:57:34.209Z,60.47
2024-02-28T04:58:34.164Z,60.64
2024-02-28T04:59:34.227Z,60.71
2024-02-28T05:00:34.299Z,60.99
2024-02-28T05:01:34.328Z,61.31
2024-02-28T05:02:34.169Z,61.44
2024-02-28T05:03:34.197Z,61.77
2024-02-28T05:04:34.174Z,61.92
2024-02-28T05:05:34.180Z,61.82
2024-02-28T05:06:35.943Z,61.80
2024-02-28T05:07:34.181Z,61.62
2024-02-28T05:08:34.175Z,61.52
2024-02-28T05:09:34.296Z,61.83
2024-02-28T05:10:34.189Z,61.93
2024-02-28T05:11:34.285Z,61.68
2024-02-28T05:12:34.297Z,61.48
2024-02-28T05:13:34.183Z,61.34
2024-02-28T05:14:34.190Z,61.32
2024-02-28T05:15:34.234Z,61.38
2024-02-28T05:16:34.205Z,61.51
2024-02-28T05:17:34.221Z,61.72
2024-02-28T05:18:34.225Z,62.12
2024-02-28T05:19:34.207Z,61.94
2024-02-28T05:20:34.200Z,61.66
2024-02-28T05:21:34.303Z,61.16
2024-02-28T05:22:34.217Z,60.98
2024-02-28T05:23:34.226Z,60.74
2024-02-28T05:24:34.257Z,60.55
2024-02-28T05:25:34.211Z,60.51
2024-02-28T05:26:34.225Z,60.55
2024-02-28T05:27:34.231Z,60.44
2024-02-28T05:28:34.219Z,60.36
2024-02-28T05:29:34.244Z,60.49
2024-02-28T05:30:34.282Z,60.50
2024-02-28T05:31:34.259Z,60.53
2024-02-28T05:32:34.280Z,60.48
2024-02-28T05:33:34.302Z,60.57
2024-02-28T05:34:34.255Z,61.06
2024-02-28T05:35:34.260Z,61.26
2024-02-28T05:36:34.337Z,61.13
2024-02-28T05:37:34.253Z,60.86
2024-02-28T05:38:34.251Z,60.86
2024-02-28T05:39:34.309Z,60.83
2024-02-28T05:40:34.257Z,60.68
2024-02-28T05:41:34.268Z,60.48
2024-02-28T05:42:34.305Z,60.34
2024-02-28T05:43:34.270Z,60.17
2024-02-28T05:44:34.276Z,59.92
2024-02-28T05:45:34.328Z,59.75
2024-02-28T05:46:34.323Z,59.56
2024-02-28T05:47:34.304Z,59.34
2024-02-28T05:48:34.285Z,59.32
2024-02-28T05:49:34.294Z,59.25
2024-02-28T05:50:34.290Z,59.06
2024-02-28T05:51:34.317Z,59.03
2024-02-28T05:52:34.291Z,59.08
2024-02-28T05:53:34.283Z,59.03
2024-02-28T05:54:34.325Z,59.14
2024-02-28T05:55:34.296Z,58.79
2024-02-28T05:56:34.343Z,58.53
2024-02-28T05:57:34.339Z,58.53
2024-02-28T05:58:34.318Z,58.49
2024-02-28T05:59:34.293Z,58.43
2024-02-28T06:00:34.374Z,58.74
2024-02-28T06:01:34.375Z,58.72
2024-02-28T06:02:34.296Z,58.84
2024-02-28T06:03:34.331Z,59.09
2024-02-28T06:04:34.306Z,59.64
2024-02-28T06:05:34.313Z,59.81
2024-02-28T06:06:34.357Z,59.89
2024-02-28T06:07:34.330Z,59.85
2024-02-28T06:08:34.311Z,59.83
2024-02-28T06:09:34.417Z,59.78
2024-02-28T06:10:34.331Z,60.00
2024-02-28T06:11:34.418Z,59.84
2024-02-28T06:12:34.470Z,59.62
2024-02-28T06:13:34.438Z,59.70
2024-02-28T06:14:34.552Z,59.70
2024-02-28T06:15:34.561Z,59.72
2024-02-28T06:16:34.532Z,59.55
2024-02-28T06:17:34.596Z,59.37
2024-02-28T06:18:35.085Z,59.35
2024-02-28T06:19:34.618Z,59.21
2024-02-28T06:20:34.677Z,59.13
2024-02-28T06:21:34.844Z,59.18
2024-02-28T06:22:34.671Z,59.31
2024-02-28T06:23:34.706Z,59.71
2024-02-28T06:24:34.789Z,59.77
2024-02-28T06:25:34.809Z,59.81
2024-02-28T06:26:34.850Z,59.70
2024-02-28T06:27:34.932Z,59.39
2024-02-28T06:28:34.873Z,59.20
2024-02-28T06:29:34.919Z,59.36
2024-02-28T06:30:35.038Z,59.49
2024-02-28T06:31:35.031Z,59.69
2024-02-28T06:32:35.130Z,59.55
2024-02-28T06:33:35.116Z,59.27
2024-02-28T06:34:35.151Z,59.30
2024-02-28T06:35:35.241Z,59.31
2024-02-28T06:36:35.319Z,59.27
2024-02-28T06:37:35.345Z,59.26
2024-02-28T06:38:35.419Z,58.92
2024-02-28T06:39:35.477Z,58.73
2024-02-28T06:40:35.552Z,58.38
2024-02-28T06:41:35.628Z,58.38
2024-02-28T06:42:35.707Z,58.51
2024-02-28T06:43:35.704Z,58.61
2024-02-28T06:44:35.807Z,58.58
2024-02-28T06:45:35.831Z,58.52
2024-02-28T06:46:35.892Z,58.55
2024-02-28T06:47:35.896Z,58.77
2024-02-28T06:48:35.996Z,58.84
2024-02-28T06:49:36.012Z,58.74
2024-02-28T06:50:36.066Z,58.53
2024-02-28T06:51:36.316Z,58.41
2024-02-28T06:52:36.105Z,58.05
2024-02-28T06:53:36.265Z,58.08
2024-02-28T06:54:36.316Z,58.28
2024-02-28T06:55:36.308Z,58.61
2024-02-28T06:56:36.329Z,58.55
2024-02-28T06:57:36.475Z,58.54
2024-02-28T06:58:36.482Z,58.50
2024-02-28T06:59:36.503Z,58.74
2024-02-28T07:00:36.646Z,59.20
2024-02-28T07:01:36.844Z,59.34
2024-02-28T07:02:36.675Z,59.11
2024-02-28T07:03:36.790Z,59.06
2024-02-28T07:04:36.860Z,58.77
2024-02-28T07:05:36.776Z,58.32
2024-02-28T07:06:36.972Z,58.24
2024-02-28T07:07:36.887Z,58.07
2024-02-28T07:08:36.907Z,58.10
2024-02-28T07:09:36.948Z,58.05
2024-02-28T07:10:37.082Z,58.26
2024-02-28T07:11:36.987Z,58.83
2024-02-28T07:12:37.145Z,59.15
2024-02-28T07:13:37.060Z,59.56
2024-02-28T07:14:37.123Z,59.51
2024-02-28T07:15:37.245Z,59.42
2024-02-28T07:16:37.244Z,59.27
2024-02-28T07:17:37.320Z,59.13
2024-02-28T07:18:37.377Z,58.74
2024-02-28T07:19:37.410Z,58.77
2024-02-28T07:20:37.489Z,58.80
2024-02-28T07:21:37.514Z,58.66
2024-02-28T07:22:37.525Z,58.38
2024-02-28T07:23:37.515Z,58.54
2024-02-28T07:24:37.582Z,58.39
2024-02-28T07:25:37.573Z,58.11
2024-02-28T07:26:37.589Z,58.01
2024-02-28T07:27:37.664Z,57.94
2024-02-28T07:28:37.653Z,57.87
2024-02-28T07:29:37.650Z,57.63
2024-02-28T07:30:37.765Z,57.50
2024-02-28T07:31:37.760Z,57.38
2024-02-28T07:32:37.873Z,57.20
2024-02-28T07:33:37.836Z,57.14
2024-02-28T07:34:37.810Z,57.11
2024-02-28T07:35:37.853Z,57.10
2024-02-28T07:36:37.981Z,57.45
2024-02-28T07:37:37.984Z,58.30
2024-02-28T07:38:37.996Z,58.89
2024-02-28T07:39:38.127Z,58.71
2024-02-28T07:40:38.049Z,58.62
2024-02-28T07:41:38.096Z,58.41
2024-02-28T07:42:38.170Z,58.21
2024-02-28T07:43:38.247Z,57.96
2024-02-28T07:44:38.168Z,57.84
2024-02-28T07:45:38.455Z,57.72
2024-02-28T07:46:38.246Z,57.65
2024-02-28T07:47:38.286Z,57.54
2024-02-28T07:48:38.287Z,57.72
2024-02-28T07:49:38.287Z,57.97
2024-02-28T07:50:38.300Z,58.30
2024-02-28T07:51:38.831Z,58.38
2024-02-28T07:52:38.536Z,58.65
2024-02-28T07:53:38.421Z,58.49
2024-02-28T07:54:38.529Z,58.64
2024-02-28T07:55:38.574Z,58.78
2024-02-28T07:56:38.533Z,58.98
2024-02-28T07:57:38.696Z,58.91
2024-02-28T07:58:38.636Z,58.38
2024-02-28T07:59:38.672Z,58.17
2024-02-28T08:00:38.846Z,57.81
2024-02-28T08:01:38.903Z,57.53
2024-02-28T08:02:38.897Z,57.33
2024-02-28T08:03:38.943Z,57.12
2024-02-28T08:04:38.987Z,57.04
2024-02-28T08:05:38.921Z,56.99
2024-02-28T08:06:38.967Z,56.88
2024-02-28T08:07:38.928Z,56.86
2024-02-28T08:08:38.935Z,56.79
2024-02-28T08:09:38.969Z,56.69
2024-02-28T08:10:38.939Z,56.57
2024-02-28T08:11:38.941Z,56.48
2024-02-28T08:12:39.017Z,56.27
2024-02-28T08:13:38.990Z,56.29
2024-02-28T08:14:38.941Z,56.24
2024-02-28T08:15:38.986Z,56.27
2024-02-28T08:16:38.959Z,56.44
2024-02-28T08:17:39.001Z,56.76
2024-02-28T08:18:39.010Z,56.99
2024-02-28T08:19:39.006Z,57.17
2024-02-28T08:20:38.987Z,57.11
2024-02-28T08:21:39.068Z,57.07
2024-02-28T08:22:38.994Z,56.96
2024-02-28T08:23:39.024Z,56.96
2024-02-28T08:24:39.072Z,57.09
2024-02-28T08:25:39.013Z,57.29
2024-02-28T08:26:39.086Z,57.40
2024-02-28T08:27:39.021Z,57.22
2024-02-28T08:28:39.034Z,57.36
2024-02-28T08:29:39.006Z,57.18
2024-02-28T08:30:39.056Z,57.02
2024-02-28T08:31:39.034Z,56.84
2024-02-28T08:32:39.041Z,56.94
2024-02-28T08:33:39.122Z,56.97
2024-02-28T08:34:39.061Z,56.89
2024-02-28T08:35:39.696Z,56.88
2024-02-28T08:36:39.091Z,56.75
2024-02-28T08:37:39.044Z,56.87
2024-02-28T08:38:39.071Z,56.76
2024-02-28T08:39:39.138Z,56.77
2024-02-28T08:40:39.182Z,57.03
2024-02-28T08:41:39.200Z,57.03
2024-02-28T08:42:39.279Z,57.12
2024-02-28T08:43:39.180Z,57.17
2024-02-28T08:44:39.212Z,57.15
2024-02-28T08:45:39.298Z,57.94
2024-02-28T08:46:39.224Z,57.98
2024-02-28T08:47:39.274Z,57.39
2024-02-28T08:48:39.261Z,57.03
2024-02-28T08:49:39.826Z,56.84
2024-02-28T08:50:39.169Z,56.80
2024-02-28T08:51:39.297Z,57.12
2024-02-28T08:52:40.166Z,58.00
2024-02-28T08:53:39.168Z,57.62
2024-02-28T08:54:39.214Z,57.16
2024-02-28T08:55:39.159Z,56.89
2024-02-28T08:56:43.897Z,56.64
2024-02-28T08:57:40.214Z,56.48
2024-02-28T08:58:39.207Z,56.41
2024-02-28T08:59:39.178Z,56.36
2024-02-28T09:00:39.284Z,56.78
2024-02-28T09:01:39.274Z,56.99
2024-02-28T09:02:39.318Z,57.02
2024-02-28T09:03:39.225Z,57.62
2024-02-28T09:04:39.203Z,57.50
2024-02-28T09:05:39.183Z,56.90
2024-02-28T09:06:39.228Z,57.22
2024-02-28T09:07:39.310Z,57.60
2024-02-28T09:08:39.358Z,57.15
2024-02-28T09:09:39.592Z,56.86
2024-02-28T09:10:39.536Z,56.31
2024-02-28T09:11:39.550Z,56.52
2024-02-28T09:12:39.554Z,56.56
2024-02-28T09:13:39.653Z,57.31
2024-02-28T09:14:39.548Z,57.78
2024-02-28T09:15:39.642Z,57.56
2024-02-28T09:16:39.590Z,56.99
2024-02-28T09:17:39.733Z,56.64
2024-02-28T09:18:39.726Z,56.04
2024-02-28T09:19:39.689Z,55.15
2024-02-28T09:20:39.724Z,54.91
2024-02-28T09:21:39.825Z,54.92
2024-02-28T09:22:39.783Z,54.91
2024-02-28T09:23:39.831Z,54.98
2024-02-28T09:24:39.926Z,55.04
2024-02-28T09:25:40.807Z,55.47
2024-02-28T09:26:39.862Z,55.56
2024-02-28T09:27:39.985Z,56.28
2024-02-28T09:28:39.992Z,56.17
2024-02-28T09:29:40.140Z,55.79
2024-02-28T09:30:45.985Z,56.41
2024-02-28T09:31:41.427Z,55.81
2024-02-28T09:32:40.058Z,54.59
2024-02-28T09:33:40.131Z,55.44
2024-02-28T09:34:40.054Z,55.14
2024-02-28T09:35:40.089Z,55.08
2024-02-28T09:36:40.095Z,55.06
2024-02-28T09:37:40.094Z,54.87
2024-02-28T09:38:40.055Z,54.83
2024-02-28T09:39:40.900Z,54.59
2024-02-28T09:40:40.103Z,54.14
2024-02-28T09:41:40.098Z,53.68
2024-02-28T09:42:40.113Z,53.55
2024-02-28T09:43:40.056Z,53.53
2024-02-28T09:44:40.080Z,53.90
2024-02-28T09:45:40.125Z,53.81
2024-02-28T09:46:40.169Z,53.74
2024-02-28T09:47:40.085Z,54.61
2024-02-28T09:48:40.110Z,54.23
2024-02-28T09:49:40.111Z,53.73
2024-02-28T09:50:40.082Z,53.18
2024-02-28T09:51:40.105Z,53.13
2024-02-28T09:52:40.401Z,53.18
2024-02-28T09:53:40.136Z,53.12
2024-02-28T09:54:40.207Z,53.30
2024-02-28T09:55:40.285Z,53.06
2024-02-28T09:56:40.262Z,52.88
2024-02-28T09:57:40.255Z,52.75
2024-02-28T09:58:40.349Z,52.67
2024-02-28T09:59:48.375Z,52.84
2024-02-28T10:00:41.435Z,52.94
2024-02-28T10:01:40.340Z,52.86
2024-02-28T10:02:40.334Z,52.67
2024-02-28T10:03:40.381Z,52.49
2024-02-28T10:04:40.406Z,52.64
2024-02-28T10:05:40.310Z,52.72
2024-02-28T10:06:40.372Z,52.92
2024-02-28T10:07:40.313Z,53.09
2024-02-28T10:08:40.363Z,52.64
2024-02-28T10:09:40.354Z,52.99
2024-02-28T10:10:40.346Z,53.10
2024-02-28T10:11:40.339Z,52.69
2024-02-28T10:12:40.335Z,52.52
2024-02-28T10:13:40.325Z,52.81
2024-02-28T10:14:40.653Z,52.73
2024-02-28T10:15:40.469Z,52.37
2024-02-28T10:16:43.844Z,52.25
2024-02-28T10:17:40.416Z,52.14
2024-02-28T10:18:40.499Z,51.97
2024-02-28T10:19:40.530Z,51.74
2024-02-28T10:20:40.537Z,51.63
2024-02-28T10:21:40.631Z,51.71
2024-02-28T10:22:40.653Z,51.67
2024-02-28T10:23:40.633Z,51.49
2024-02-28T10:24:40.756Z,51.36
2024-02-28T10:25:45.470Z,50.99
2024-02-28T10:26:41.815Z,50.83
2024-02-28T10:27:40.697Z,51.04
2024-02-28T10:28:40.730Z,51.04
2024-02-28T10:29:40.698Z,51.08
2024-02-28T10:30:40.811Z,50.79
2024-02-28T10:31:40.832Z,51.13
2024-02-28T10:32:40.713Z,51.09
2024-02-28T10:33:40.745Z,50.93
2024-02-28T10:34:40.699Z,50.83
2024-02-28T10:35:40.684Z,51.85
2024-02-28T10:36:40.806Z,52.14
2024-02-28T10:37:40.722Z,52.00
2024-02-28T10:38:40.693Z,50.75
2024-02-28T10:39:40.772Z,50.49
2024-02-28T10:40:40.720Z,50.43
2024-02-28T10:41:40.808Z,50.66
2024-02-28T10:42:40.916Z,50.89
2024-02-28T10:43:40.907Z,50.15
2024-02-28T10:44:40.973Z,49.92
2024-02-28T10:45:57.546Z,50.07
2024-02-28T10:46:42.131Z,49.73
2024-02-28T10:47:41.121Z,49.77
2024-02-28T10:48:41.029Z,50.32
2024-02-28T10:49:41.018Z,50.09
2024-02-28T10:50:40.975Z,50.09
2024-02-28T10:51:41.122Z,49.88
2024-02-28T10:52:40.999Z,49.99
2024-02-28T10:53:41.002Z,50.10
2024-02-28T10:54:41.412Z,50.04
2024-02-28T10:55:40.988Z,49.53
2024-02-28T10:56:41.380Z,49.14
2024-02-28T10:57:41.136Z,49.10
2024-02-28T10:58:41.090Z,48.64
2024-02-28T10:59:41.146Z,48.49
2024-02-28T11:00:41.318Z,48.14
2024-02-28T11:01:41.259Z,48.10
2024-02-28T11:02:41.283Z,48.26
2024-02-28T11:03:41.245Z,47.93
2024-02-28T11:04:41.333Z,48.44
2024-02-28T11:05:41.353Z,48.99
2024-02-28T11:06:41.435Z,49.14
2024-02-28T11:07:41.491Z,48.94
2024-02-28T11:08:41.480Z,48.80
2024-02-28T11:09:41.562Z,48.87
2024-02-28T11:10:41.593Z,49.70
2024-02-28T11:11:41.864Z,49.79
2024-02-28T11:12:41.584Z,49.76
2024-02-28T11:13:41.654Z,49.49
2024-02-28T11:14:41.623Z,48.63
2024-02-28T11:15:41.891Z,48.14
2024-02-28T11:16:41.883Z,47.77
2024-02-28T11:17:41.949Z,47.64
2024-02-28T11:18:41.853Z,47.66
2024-02-28T11:19:41.823Z,47.19
2024-02-28T11:20:42.362Z,47.47
2024-02-28T11:21:41.914Z,48.02
2024-02-28T11:22:42.063Z,48.07
2024-02-28T11:23:41.989Z,47.73
2024-02-28T11:24:42.062Z,47.15
2024-02-28T11:25:42.104Z,47.26
2024-02-28T11:26:42.341Z,46.97
2024-02-28T11:27:42.097Z,46.32
2024-02-28T11:28:42.260Z,46.66
2024-02-28T11:29:42.422Z,46.91
2024-02-28T11:30:42.259Z,47.13
2024-02-28T11:31:42.408Z,47.11
2024-02-28T11:32:42.404Z,46.94
2024-02-28T11:33:43.534Z,47.38
2024-02-28T11:34:42.510Z,47.57
2024-02-28T11:35:42.570Z,47.81
2024-02-28T11:36:42.874Z,47.29
2024-02-28T11:37:42.636Z,47.32
2024-02-28T11:38:42.656Z,47.73
2024-02-28T11:39:42.728Z,47.37
2024-02-28T11:40:42.717Z,47.37
2024-02-28T11:41:43.005Z,46.93
2024-02-28T11:42:42.922Z,46.09
2024-02-28T11:43:50.421Z,46.15
2024-02-28T11:44:43.800Z,45.61
2024-02-28T11:45:42.957Z,45.68
2024-02-28T11:46:42.835Z,46.02
2024-02-28T11:47:42.906Z,46.04
2024-02-28T11:48:42.875Z,45.58
2024-02-28T11:49:42.961Z,45.72
2024-02-28T11:50:43.037Z,45.65
2024-02-28T11:51:42.871Z,45.71
2024-02-28T11:52:42.842Z,45.42
2024-02-28T11:53:42.852Z,45.42
2024-02-28T11:54:42.871Z,45.58
2024-02-28T11:55:42.858Z,45.15
2024-02-28T11:56:43.193Z,44.42
2024-02-28T11:57:42.904Z,44.58
2024-02-28T11:58:42.844Z,44.86
2024-02-28T11:59:42.906Z,45.81
2024-02-28T12:00:43.118Z,45.54
2024-02-28T12:01:42.936Z,45.78
2024-02-28T12:02:42.998Z,45.37
2024-02-28T12:03:42.879Z,44.87
2024-02-28T12:04:42.842Z,43.87
2024-02-28T12:05:42.869Z,43.56
2024-02-28T12:06:42.903Z,43.86
2024-02-28T12:07:42.863Z,44.14
2024-02-28T12:08:42.920Z,43.77
2024-02-28T12:09:43.351Z,43.56
2024-02-28T12:10:42.958Z,43.42
2024-02-28T12:11:42.964Z,43.47
2024-02-28T12:12:43.057Z,43.31
2024-02-28T12:13:43.750Z,43.21
2024-02-28T12:14:43.114Z,43.46
2024-02-28T12:15:43.200Z,42.59
2024-02-28T12:16:43.294Z,42.92
2024-02-28T12:17:43.466Z,42.56
2024-02-28T12:18:43.398Z,42.99
2024-02-28T12:19:43.346Z,43.50
2024-02-28T12:20:43.365Z,44.74
2024-02-28T12:21:43.531Z,45.15
2024-02-28T12:22:43.922Z,45.32
2024-02-28T12:23:43.469Z,44.22
2024-02-28T12:24:43.639Z,44.55
2024-02-28T12:25:43.540Z,44.07
2024-02-28T12:26:43.560Z,43.84
2024-02-28T12:27:43.644Z,44.47
2024-02-28T12:28:43.611Z,44.17
2024-02-28T12:29:43.661Z,44.27
2024-02-28T12:30:43.882Z,43.41
2024-02-28T12:31:43.773Z,43.08
2024-02-28T12:32:43.842Z,43.06
2024-02-28T12:33:43.931Z,42.86
2024-02-28T12:34:43.954Z,42.33
2024-02-28T12:35:44.041Z,42.33
2024-02-28T12:36:45.524Z,42.20
2024-02-28T12:37:44.125Z,42.88
2024-02-28T12:38:44.117Z,42.86
2024-02-28T12:39:44.154Z,42.29
2024-02-28T12:40:44.142Z,42.34
2024-02-28T12:41:44.174Z,42.11
2024-02-28T12:42:44.225Z,42.15
2024-02-28T12:43:44.212Z,42.50
2024-02-28T12:44:44.261Z,42.10
2024-02-28T12:45:44.248Z,42.18
2024-02-28T12:46:44.282Z,42.32
2024-02-28T12:47:44.353Z,42.43
2024-02-28T12:48:44.376Z,41.81
2024-02-28T12:49:44.428Z,41.56
2024-02-28T12:50:44.485Z,42.41
2024-02-28T12:51:44.679Z,42.53
2024-02-28T12:52:44.582Z,42.54